Greenhill, United Kingdom
Current Conditions -  °F | °C
As of 1:50 PM on Friday 28 Nov 2014 (Local Time) from EGWU Reporting Station
Broken Clouds Broken Clouds  
Wind Chill: 54°   Ceiling: 1200
Heat Index: 54°   Visibility: 6mi
Dew Point: 48°   Wind: 14mph
Humidity: 82%   Direction: 90°E
Pressure: 29.59"   Gusts: NA
Location:  51.58°N, 0.34°W
Report Text: EGWU 281350Z 09012KT 9999 BKN012 12/09 Q1002 GRN BECMG FEW015 BLU
Loading
Personal Weather Stations






























Interactive Weather Map New forecast layout! Learn more

10-Day Weather Forecast

Advertisements
Track Severe Weather on mobile